Serraria, Brazil
Current Conditions -  °F | °C
As of 2:00 PM on Friday 28 Nov 2014 (Local Time) from SBKG Reporting Station
Scattered Clouds Scattered Clouds  
Wind Chill: 86°   Ceiling: Unl
Heat Index: 88°   Visibility: 6mi
Dew Point: 66°   Wind: 10mph
Humidity: 51%   Direction: 110°ESE
Pressure: 29.91"   Gusts: NA
Location:  6.83°S, 35.62°W
Report Text: SBKG 281700Z 11009KT 9999 SCT040 30/19 Q1013
Loading
Personal Weather Stations






























Interactive Weather Map New forecast layout! Learn more

10-Day Weather Forecast

Advertisements
Track Severe Weather on mobile